Time;durP1;ratioP1;P1;durP2;ratioP2;P2;SDS_P1;SDS_P2;PMS_P1;PMS_P2;Temp;Humidity;BMP_temperature;BMP_pressure;BME280_temperature;BME280_humidity;BME280_pressure;Samples;Min_cycle;Max_cycle;Signal;HPM_P1;HPM_P2
2023/04/10 00:01:10;;;;;;;;;;;;;;;15.05;41.08;101637.16;4972171;27;97922;-67
2023/04/10 00:03:36;;;;;;;;;;;;;;;15.04;40.85;101640.97;4968898;27;98652;-67
2023/04/10 00:06:02;;;;;;;;;;;;;;;15.02;41.02;101637.72;4971178;27;98317;-66
2023/04/10 00:08:28;;;;;;;;;;;;;;;15.00;40.87;101634.44;4970791;27;123731;-67
2023/04/10 00:10:54;;;;;;;;;;;;;;;14.97;40.81;101638.50;4968115;27;122124;-66
2023/04/10 00:13:20;;;;;;;;;;;;;;;14.94;41.10;101629.00;4969349;27;98483;-67
2023/04/10 00:15:47;;;;;;;;;;;;;;;14.93;40.81;101631.97;4950882;27;128011;-67
2023/04/10 00:18:13;;;;;;;;;;;;;;;14.91;40.88;101632.25;4949063;27;126182;-66
2023/04/10 00:20:39;;;;;;;;;;;;;;;14.88;41.08;101635.50;4970462;27;123714;-67
2023/04/10 00:23:05;;;;;;;;;;;;;;;14.87;41.08;101638.50;4972770;27;98995;-67
2023/04/10 00:25:31;;;;;;;;;;;;;;;14.86;41.12;101628.72;4971490;27;126817;-66
2023/04/10 00:27:57;;;;;;;;;;;;;;;14.89;41.12;101628.16;4971131;27;128275;-67
2023/04/10 00:30:23;;;;;;;;;;;;;;;14.94;41.01;101623.59;4972302;27;121502;-67
2023/04/10 00:32:49;;;;;;;;;;;;;;;14.98;41.28;101621.97;4972977;27;98980;-67
2023/04/10 00:35:15;;;;;;;;;;;;;;;15.03;41.11;101621.16;4971830;27;98584;-66
2023/04/10 00:37:41;;;;;;;;;;;;;;;15.06;40.99;101622.50;4973460;27;99903;-67
2023/04/10 00:40:07;;;;;;;;;;;;;;;15.09;41.12;101624.66;4968308;27;116513;-67
2023/04/10 00:42:33;;;;;;;;;;;;;;;15.09;40.86;101611.94;4970545;27;98517;-66
2023/04/10 00:44:59;;;;;;;;;;;;;;;15.09;41.11;101617.38;4971104;27;126783;-67
2023/04/10 00:47:26;;;;;;;;;;;;;;;15.11;40.92;101619.78;4972255;27;104091;-65
2023/04/10 00:49:52;;;;;;;;;;;;;;;15.11;40.84;101622.50;4950564;27;97972;-67
2023/04/10 00:52:17;;;;;;;;;;;;;;;15.10;40.83;101615.47;4954202;27;124641;-66
2023/04/10 00:54:43;;;;;;;;;;;;;;;15.09;41.19;101624.66;4952767;27;128883;-66
2023/04/10 00:57:09;;;;;;;;;;;;;;;15.08;40.92;101615.72;4951033;27;126937;-66
2023/04/10 00:59:35;;;;;;;;;;;;;;;15.07;41.09;101611.38;4957827;28;98389;-66
2023/04/10 01:02:01;;;;;;;;;;;;;;;15.05;41.02;101610.00;4973016;27;128196;-66
2023/04/10 01:04:27;;;;;;;;;;;;;;;15.03;41.12;101607.56;4937196;27;123445;-66
2023/04/10 01:07:10;;;;;;;;;;;;;;;15.00;40.91;101610.81;4937901;28;98395;-66
2023/04/10 01:09:44;;;;;;;;;;;;;;;15.00;40.83;101613.53;4971441;27;97929;-66
2023/04/10 01:12:16;;;;;;;;;;;;;;;14.96;40.88;101612.44;4970354;27;98521;-67
2023/04/10 01:14:56;;;;;;;;;;;;;;;14.94;41.07;101614.63;4972434;27;98116;-68
2023/04/10 01:17:35;;;;;;;;;;;;;;;14.92;41.00;101608.63;4942414;27;119951;-66
2023/04/10 01:20:28;;;;;;;;;;;;;;;14.90;41.08;101617.06;4954494;28;99039;-66
2023/04/10 01:23:20;;;;;;;;;;;;;;;14.87;41.20;101620.31;4968475;27;98053;-66
2023/04/10 01:25:58;;;;;;;;;;;;;;;14.85;41.03;101618.94;4972848;27;98153;-67
2023/04/10 01:28:45;;;;;;;;;;;;;;;14.80;41.03;101611.59;4953455;27;112942;-66
2023/04/10 01:31:15;;;;;;;;;;;;;;;14.79;41.17;101611.88;4969804;27;99864;-66
2023/04/10 01:33:48;;;;;;;;;;;;;;;14.76;41.19;101621.34;4953971;28;98785;-67
2023/04/10 01:36:25;;;;;;;;;;;;;;;14.75;40.87;101613.50;4936496;27;99462;-66
2023/04/10 01:38:51;;;;;;;;;;;;;;;14.72;41.20;101620.25;4955796;28;98520;-66
2023/04/10 01:41:17;;;;;;;;;;;;;;;14.68;41.36;101611.84;4952161;27;122555;-66
2023/04/10 01:43:45;;;;;;;;;;;;;;;14.66;40.99;101613.19;4953504;28;106945;-67
2023/04/10 01:46:11;;;;;;;;;;;;;;;14.64;41.19;101609.94;4950722;27;100310;-66
2023/04/10 01:48:37;;;;;;;;;;;;;;;14.62;41.14;101614.78;4968535;27;127705;-67
2023/04/10 01:51:03;;;;;;;;;;;;;;;14.59;41.14;101607.19;4935869;27;117982;-68
2023/04/10 01:53:29;;;;;;;;;;;;;;;14.55;40.99;101606.91;4954073;27;99025;-67
2023/04/10 01:55:55;;;;;;;;;;;;;;;14.54;41.07;101602.59;4952844;28;128750;-68
2023/04/10 01:58:21;;;;;;;;;;;;;;;14.52;40.82;101607.44;4934106;27;127691;-67
2023/04/10 02:00:47;;;;;;;;;;;;;;;14.48;40.77;101615.25;4968424;27;121014;-65
2023/04/10 02:03:13;;;;;;;;;;;;;;;14.46;40.94;101614.72;4970854;27;98426;-67
2023/04/10 02:05:55;;;;;;;;;;;;;;;14.44;40.83;101613.34;4969620;27;128495;-67
2023/04/10 02:08:30;;;;;;;;;;;;;;;14.42;41.17;101610.06;4941636;27;98379;-65
2023/04/10 02:11:02;;;;;;;;;;;;;;;14.40;40.89;101604.13;4969646;27;98116;-66
2023/04/10 02:13:28;;;;;;;;;;;;;;;14.37;41.12;101602.75;4954481;27;98559;-67
2023/04/10 02:15:55;;;;;;;;;;;;;;;14.35;40.84;101601.41;4968070;27;127390;-66
2023/04/10 02:18:21;;;;;;;;;;;;;;;14.32;40.86;101601.91;4970170;27;98800;-66
2023/04/10 02:20:47;;;;;;;;;;;;;;;14.30;40.85;101602.16;4953435;27;106186;-67
2023/04/10 02:23:15;;;;;;;;;;;;;;;14.28;41.10;101603.53;4965929;27;128212;-67
2023/04/10 02:25:43;;;;;;;;;;;;;;;14.26;40.86;101601.06;4965796;27;119080;-65
2023/04/10 02:28:09;;;;;;;;;;;;;;;14.23;41.21;101605.13;4967422;27;125353;-67
2023/04/10 02:30:35;;;;;;;;;;;;;;;14.22;41.08;101597.25;4972926;27;121358;-67
2023/04/10 02:33:01;;;;;;;;;;;;;;;14.20;40.79;101596.72;4971402;27;99580;-66
2023/04/10 02:35:28;;;;;;;;;;;;;;;14.18;40.70;101593.44;4969827;27;128938;-66
2023/04/10 02:37:54;;;;;;;;;;;;;;;14.15;40.97;101594.78;4968888;27;98229;-65
2023/04/10 02:40:20;;;;;;;;;;;;;;;14.12;40.77;101592.59;4969084;27;97962;-67
2023/04/10 02:42:46;;;;;;;;;;;;;;;14.12;40.91;101597.22;4969063;27;128299;-66
2023/04/10 02:45:12;;;;;;;;;;;;;;;14.09;41.19;101593.13;4956238;27;98260;-65
2023/04/10 02:47:38;;;;;;;;;;;;;;;14.09;41.19;101600.44;4971445;27;128173;-66
2023/04/10 02:50:04;;;;;;;;;;;;;;;14.06;40.78;101604.50;4966468;27;123485;-67
2023/04/10 02:52:30;;;;;;;;;;;;;;;14.05;40.95;101599.34;4968116;27;98339;-67
2023/04/10 02:54:56;;;;;;;;;;;;;;;14.02;41.18;101605.28;4966653;27;128011;-67
2023/04/10 02:57:22;;;;;;;;;;;;;;;14.00;41.03;101600.13;4968560;27;127502;-66
2023/04/10 02:59:51;;;;;;;;;;;;;;;13.99;41.00;101601.22;4968261;27;98143;-66
2023/04/10 03:02:17;;;;;;;;;;;;;;;13.96;40.90;101597.13;4971181;27;99268;-67
2023/04/10 03:04:43;;;;;;;;;;;;;;;13.94;40.96;101588.44;4971543;27;125908;-67
2023/04/10 03:07:09;;;;;;;;;;;;;;;13.92;40.99;101596.03;4968067;27;126414;-67
2023/04/10 03:09:35;;;;;;;;;;;;;;;13.91;40.87;101604.41;4971093;27;98022;-67
2023/04/10 03:12:01;;;;;;;;;;;;;;;13.90;40.96;101602.78;4970425;27;99115;-67
2023/04/10 03:14:27;;;;;;;;;;;;;;;13.87;40.84;101608.72;4967865;27;98362;-65
2023/04/10 03:16:53;;;;;;;;;;;;;;;13.85;40.64;101606.28;4960686;28;127455;-65
2023/04/10 03:19:19;;;;;;;;;;;;;;;13.83;40.85;101607.59;4969733;27;120778;-67
2023/04/10 03:21:45;;;;;;;;;;;;;;;13.82;40.77;101603.28;4970268;27;128599;-67
2023/04/10 03:24:11;;;;;;;;;;;;;;;13.80;41.09;101589.19;4969194;27;99638;-65
2023/04/10 03:26:37;;;;;;;;;;;;;;;13.79;41.17;101599.19;4970440;27;127537;-67
2023/04/10 03:29:03;;;;;;;;;;;;;;;13.75;41.00;101595.34;4971008;27;122473;-66
2023/04/10 03:31:29;;;;;;;;;;;;;;;13.74;41.20;101597.25;4972646;27;129728;-66
2023/04/10 03:33:55;;;;;;;;;;;;;;;13.73;40.91;101601.06;4975336;27;98221;-66
2023/04/10 03:36:21;;;;;;;;;;;;;;;13.71;40.93;101599.66;4971548;27;127561;-66
2023/04/10 03:38:47;;;;;;;;;;;;;;;13.70;40.96;101595.34;4974175;27;97781;-67
2023/04/10 03:41:13;;;;;;;;;;;;;;;13.67;40.84;101593.94;4973834;27;98244;-67
2023/04/10 03:43:39;;;;;;;;;;;;;;;13.67;40.84;101595.84;4971824;27;127407;-67
2023/04/10 03:46:05;;;;;;;;;;;;;;;13.63;40.89;101600.97;4969778;27;98331;-67
2023/04/10 03:48:32;;;;;;;;;;;;;;;13.62;40.75;101602.06;4973035;27;98388;-66
2023/04/10 03:50:58;;;;;;;;;;;;;;;13.60;40.84;101598.81;4974146;27;98452;-66
2023/04/10 03:53:24;;;;;;;;;;;;;;;13.60;40.91;101592.56;4937636;27;129482;-67
2023/04/10 03:55:51;;;;;;;;;;;;;;;13.57;41.17;101596.59;4940178;28;97934;-67
2023/04/10 03:58:18;;;;;;;;;;;;;;;13.55;41.17;101600.66;4972142;27;98044;-67
2023/04/10 04:00:44;;;;;;;;;;;;;;;13.54;40.77;101601.72;4954391;28;98404;-67
2023/04/10 04:03:10;;;;;;;;;;;;;;;13.53;40.95;101605.53;4953292;27;98510;-67
2023/04/10 04:05:36;;;;;;;;;;;;;;;13.51;40.99;101600.34;4972038;27;127697;-66
2023/04/10 04:08:05;;;;;;;;;;;;;;;13.49;40.84;101606.03;4973241;27;120276;-66
2023/04/10 04:10:31;;;;;;;;;;;;;;;13.49;41.06;101613.34;4974739;27;99552;-67
2023/04/10 04:12:57;;;;;;;;;;;;;;;13.47;40.85;101607.34;4951953;28;117553;-67
2023/04/10 04:15:23;;;;;;;;;;;;;;;13.47;41.17;101607.34;4973574;27;104757;-66
2023/04/10 04:17:49;;;;;;;;;;;;;;;13.46;40.85;101616.56;4954854;27;98289;-65
2023/04/10 04:20:15;;;;;;;;;;;;;;;13.45;40.90;101613.03;4970785;27;98176;-66
2023/04/10 04:22:41;;;;;;;;;;;;;;;13.45;41.03;101620.34;4971711;27;128127;-66
2023/04/10 04:25:10;;;;;;;;;;;;;;;13.45;40.79;101623.06;4970835;27;127585;-67
2023/04/10 04:27:36;;;;;;;;;;;;;;;13.45;40.94;101631.19;4967845;27;97933;-65
2023/04/10 04:30:02;;;;;;;;;;;;;;;13.45;41.01;101620.34;4970322;27;123924;-66
2023/04/10 04:32:28;;;;;;;;;;;;;;;13.45;40.83;101631.19;4969245;27;109214;-65
2023/04/10 04:34:54;;;;;;;;;;;;;;;13.45;40.78;101629.28;4970273;27;128061;-67
2023/04/10 04:37:20;;;;;;;;;;;;;;;13.46;40.80;101621.97;4972033;27;122911;-65
2023/04/10 04:39:46;;;;;;;;;;;;;;;13.45;40.79;101634.72;4972399;27;126194;-67
2023/04/10 04:42:12;;;;;;;;;;;;;;;13.46;40.93;101622.78;4969090;27;128214;-65
2023/04/10 04:44:38;;;;;;;;;;;;;;;13.47;40.96;101632.53;4955156;27;124846;-67
2023/04/10 04:47:04;;;;;;;;;;;;;;;13.49;40.91;101627.69;4968508;27;121252;-67
2023/04/10 04:49:30;;;;;;;;;;;;;;;13.49;40.83;101630.41;4967747;27;98421;-68
2023/04/10 04:51:55;;;;;;;;;;;;;;;13.50;40.57;101628.50;4970663;27;98825;-67
2023/04/10 04:54:21;;;;;;;;;;;;;;;13.53;40.82;101627.19;4950549;27;127197;-67
2023/04/10 04:56:47;;;;;;;;;;;;;;;13.54;40.88;101629.63;4969417;27;122748;-67
2023/04/10 04:59:13;;;;;;;;;;;;;;;13.57;40.73;101636.44;4967822;27;125835;-66
2023/04/10 05:01:39;;;;;;;;;;;;;;;13.59;40.96;101635.06;4966083;27;128426;-67
2023/04/10 05:04:05;;;;;;;;;;;;;;;13.61;40.89;101630.22;4937902;28;99766;-67
2023/04/10 05:06:31;;;;;;;;;;;;;;;13.64;40.41;101631.63;4967886;27;99636;-65
2023/04/10 05:08:57;;;;;;;;;;;;;;;13.66;40.83;101627.56;4963326;27;116006;-65
2023/04/10 05:11:23;;;;;;;;;;;;;;;13.71;40.71;101641.13;4947823;28;126075;-66
2023/04/10 05:13:49;;;;;;;;;;;;;;;13.74;40.40;101642.50;4950021;28;125327;-68
2023/04/10 05:16:15;;;;;;;;;;;;;;;13.79;40.35;101644.44;4946726;28;123162;-65
2023/04/10 05:18:41;;;;;;;;;;;;;;;13.82;40.31;101642.03;4926696;28;127111;-67
2023/04/10 05:21:07;;;;;;;;;;;;;;;13.86;40.57;101651.25;4946659;28;128307;-65
2023/04/10 05:23:33;;;;;;;;;;;;;;;13.90;40.61;101646.94;4944317;28;128115;-67
2023/04/10 05:25:59;;;;;;;;;;;;;;;13.95;40.32;101651.59;4948250;28;97930;-66
2023/04/10 05:28:25;;;;;;;;;;;;;;;13.99;40.43;101653.53;4931193;28;98582;-66
2023/04/10 05:30:51;;;;;;;;;;;;;;;14.05;40.25;101643.53;4928886;28;98665;-67
2023/04/10 05:33:16;;;;;;;;;;;;;;;14.10;40.47;101648.16;4932918;28;99393;-65
2023/04/10 05:35:42;;;;;;;;;;;;;;;14.16;40.15;101649.84;4948488;28;122613;-65
2023/04/10 05:38:08;;;;;;;;;;;;;;;14.22;40.14;101646.06;4946396;28;127260;-67
2023/04/10 05:40:34;;;;;;;;;;;;;;;14.28;40.09;101655.06;4946856;28;125813;-66
2023/04/10 05:43:00;;;;;;;;;;;;;;;14.35;40.05;101655.63;4944076;28;99415;-66
2023/04/10 05:45:27;;;;;;;;;;;;;;;14.40;40.13;101648.31;4945088;28;122690;-67
2023/04/10 05:47:53;;;;;;;;;;;;;;;14.47;40.46;101648.91;4944217;28;98611;-66
2023/04/10 05:50:19;;;;;;;;;;;;;;;14.54;40.40;101646.00;4929156;28;126136;-67
2023/04/10 05:52:45;;;;;;;;;;;;;;;14.61;40.04;101646.53;4947601;28;117219;-66
2023/04/10 05:55:11;;;;;;;;;;;;;;;14.69;40.11;101639.78;4947336;28;97973;-66
2023/04/10 05:57:38;;;;;;;;;;;;;;;14.78;40.08;101640.09;4947489;28;129202;-67
2023/04/10 06:00:04;;;;;;;;;;;;;;;14.85;40.07;101641.44;4945915;28;126024;-65
2023/04/10 06:02:31;;;;;;;;;;;;;;;14.97;39.85;101650.19;4946523;28;122511;-67
2023/04/10 06:04:57;;;;;;;;;;;;;;;15.11;39.89;101647.75;4946526;28;113494;-66
2023/04/10 06:07:22;;;;;;;;;;;;;;;15.23;39.60;101650.22;4945569;28;128171;-67
2023/04/10 06:09:48;;;;;;;;;;;;;;;15.37;39.68;101651.34;4954984;27;127049;-67
2023/04/10 06:12:15;;;;;;;;;;;;;;;15.54;39.75;101647.53;4966687;27;127577;-68
2023/04/10 06:14:41;;;;;;;;;;;;;;;15.66;39.85;101648.91;4967099;27;100518;-66
2023/04/10 06:17:07;;;;;;;;;;;;;;;15.81;39.43;101644.56;4951935;27;99572;-66
2023/04/10 06:19:32;;;;;;;;;;;;;;;15.91;39.63;101641.81;4965399;27;102207;-67
2023/04/10 06:21:58;;;;;;;;;;;;;;;16.04;39.54;101643.97;4966804;27;126721;-65
2023/04/10 06:24:24;;;;;;;;;;;;;;;16.19;39.57;101645.81;4964387;27;123741;-67
2023/04/10 06:26:50;;;;;;;;;;;;;;;16.32;39.48;101647.16;4966949;27;129336;-65
2023/04/10 06:29:16;;;;;;;;;;;;;;;16.48;39.47;101639.75;4965672;27;127663;-65
2023/04/10 06:31:42;;;;;;;;;;;;;;;16.62;39.40;101643.47;4966643;27;127403;-67
2023/04/10 06:34:08;;;;;;;;;;;;;;;16.74;39.26;101645.91;4965549;27;117101;-67
2023/04/10 06:36:34;;;;;;;;;;;;;;;16.87;39.27;101639.88;4965692;27;129025;-67
2023/04/10 06:39:01;;;;;;;;;;;;;;;17.05;39.23;101635.66;4948758;28;98646;-67
2023/04/10 06:41:27;;;;;;;;;;;;;;;17.32;38.96;101640.63;4968118;27;98011;-65
2023/04/10 06:43:53;;;;;;;;;;;;;;;17.66;38.78;101646.09;4966136;27;122102;-65
2023/04/10 06:46:19;;;;;;;;;;;;;;;17.92;38.66;101641.25;4957979;27;128488;-65
2023/04/10 06:48:45;;;;;;;;;;;;;;;18.00;38.67;101643.34;4968793;27;127466;-67
2023/04/10 06:51:11;;;;;;;;;;;;;;;18.01;39.01;101644.16;4969550;27;127069;-67
2023/04/10 06:53:37;;;;;;;;;;;;;;;18.10;38.94;101632.31;4971800;27;122058;-67
2023/04/10 06:56:03;;;;;;;;;;;;;;;18.21;38.91;101640.38;4940776;27;129283;-66
2023/04/10 06:58:29;;;;;;;;;;;;;;;18.34;38.91;101639.69;4949066;27;124653;-66
2023/04/10 07:00:56;;;;;;;;;;;;;;;18.44;38.99;101639.56;4968147;27;98188;-67
2023/04/10 07:03:22;;;;;;;;;;;;;;;18.55;38.88;101634.75;4967781;27;98152;-68
2023/04/10 07:05:48;;;;;;;;;;;;;;;18.67;38.91;101628.88;4969879;27;129114;-67
2023/04/10 07:08:14;;;;;;;;;;;;;;;18.78;39.01;101630.41;4965395;27;127262;-67
2023/04/10 07:10:40;;;;;;;;;;;;;;;18.91;38.82;101631.59;4968322;27;125184;-67
2023/04/10 07:13:06;;;;;;;;;;;;;;;19.02;38.87;101636.63;4968530;27;121434;-65
2023/04/10 07:15:32;;;;;;;;;;;;;;;19.16;38.73;101630.41;4967818;27;127000;-66
2023/04/10 07:17:58;;;;;;;;;;;;;;;19.30;38.85;101632.09;4956802;28;127706;-67
2023/04/10 07:20:24;;;;;;;;;;;;;;;19.42;38.83;101622.63;4968529;27;98049;-67
2023/04/10 07:22:50;;;;;;;;;;;;;;;19.55;38.79;101624.56;4969015;27;97908;-67
2023/04/10 07:25:17;;;;;;;;;;;;;;;19.67;38.63;101626.84;4967689;27;127389;-67
2023/04/10 07:27:43;;;;;;;;;;;;;;;19.78;38.64;101622.84;4965739;27;98838;-68
2023/04/10 07:30:09;;;;;;;;;;;;;;;19.98;38.60;101621.63;4967312;27;126916;-66
2023/04/10 07:32:38;;;;;;;;;;;;;;;20.14;38.50;101609.28;4952509;27;98359;-68
2023/04/10 07:35:05;;;;;;;;;;;;;;;20.15;38.67;101608.16;4971373;27;98132;-66
2023/04/10 07:37:30;;;;;;;;;;;;;;;20.49;38.35;101604.22;4968253;27;100611;-66
2023/04/10 07:39:56;;;;;;;;;;;;;;;20.78;37.95;101607.38;4969599;27;128613;-68
2023/04/10 07:42:22;;;;;;;;;;;;;;;21.08;37.98;101603.13;4967546;27;98227;-66
2023/04/10 07:44:48;;;;;;;;;;;;;;;21.39;37.71;101613.38;4969456;27;128228;-66
2023/04/10 07:47:14;;;;;;;;;;;;;;;21.70;37.66;101607.91;4968046;27;128465;-66
2023/04/10 07:49:40;;;;;;;;;;;;;;;22.00;37.47;101608.19;4971510;27;126514;-66
2023/04/10 07:52:06;;;;;;;;;;;;;;;22.32;37.37;101606.22;4967415;27;98239;-67
2023/04/10 07:54:33;;;;;;;;;;;;;;;22.65;37.29;101609.38;4969458;27;126181;-67
2023/04/10 07:56:59;;;;;;;;;;;;;;;23.00;37.10;101599.22;4968222;27;98097;-67
2023/04/10 07:59:25;;;;;;;;;;;;;;;23.38;36.99;101606.75;4969108;27;98114;-67
2023/04/10 08:01:51;;;;;;;;;;;;;;;23.87;36.86;101607.31;4968888;27;97813;-68
2023/04/10 08:04:17;;;;;;;;;;;;;;;24.42;36.56;101606.41;4966261;27;127897;-67
2023/04/10 08:06:43;;;;;;;;;;;;;;;25.00;36.00;101601.13;4968661;27;128672;-68
2023/04/10 08:09:09;;;;;;;;;;;;;;;25.59;35.85;101595.34;4954195;27;127897;-67
2023/04/10 08:11:35;;;;;;;;;;;;;;;26.26;35.73;101601.50;4953081;27;122219;-68
2023/04/10 08:14:01;;;;;;;;;;;;;;;26.96;35.47;101601.25;4971764;27;99580;-69
2023/04/10 08:16:29;;;;;;;;;;;;;;;27.71;35.17;101600.53;4955346;27;98654;-69
2023/04/10 08:18:56;;;;;;;;;;;;;;;28.43;34.53;101609.44;4950254;27;98371;-69
2023/04/10 08:21:22;;;;;;;;;;;;;;;28.96;34.43;101600.66;4967118;27;98174;-67
2023/04/10 08:23:52;;;;;;;;;;;;;;;29.53;34.35;101601.75;4970198;27;98555;-68
2023/04/10 08:26:21;;;;;;;;;;;;;;;30.22;34.20;101598.94;4967903;27;128530;-68
2023/04/10 08:28:50;;;;;;;;;;;;;;;31.00;34.08;101588.88;4968048;27;98888;-68
2023/04/10 08:31:17;;;;;;;;;;;;;;;31.83;33.61;101586.91;4948994;27;105487;-69
2023/04/10 08:33:43;;;;;;;;;;;;;;;32.62;33.70;101580.69;4966871;27;99190;-68
2023/04/10 08:36:09;;;;;;;;;;;;;;;33.44;33.34;101577.31;4970562;27;128009;-68
2023/04/10 08:38:35;;;;;;;;;;;;;;;34.22;32.90;101570.09;4968536;27;98240;-68
2023/04/10 08:41:01;;;;;;;;;;;;;;;34.93;32.96;101576.22;4966717;27;111505;-69
2023/04/10 08:43:26;;;;;;;;;;;;;;;35.72;32.76;101569.31;4967480;27;129004;-70
2023/04/10 08:45:52;;;;;;;;;;;;;;;36.57;32.61;101565.63;4968082;27;106224;-69
2023/04/10 08:48:21;;;;;;;;;;;;;;;37.34;31.87;101566.97;4966108;27;127829;-68
2023/04/10 08:50:47;;;;;;;;;;;;;;;37.76;32.03;101561.84;4941128;27;98243;-69
2023/04/10 08:53:14;;;;;;;;;;;;;;;38.21;32.01;101553.00;4953734;27;99230;-69
2023/04/10 08:55:40;;;;;;;;;;;;;;;38.69;32.02;101545.97;4970070;27;98892;-69
2023/04/10 08:58:06;;;;;;;;;;;;;;;39.15;31.54;101547.75;4968643;27;98649;-69
2023/04/10 09:00:33;;;;;;;;;;;;;;;39.56;31.38;101542.72;4967704;27;98230;-69
2023/04/10 09:02:59;;;;;;;;;;;;;;;40.05;31.17;101539.78;4969769;27;98732;-69
2023/04/10 09:05:29;;;;;;;;;;;;;;;40.61;31.21;101528.13;4949902;27;98922;-69
2023/04/10 09:07:55;;;;;;;;;;;;;;;41.32;30.65;101534.31;4962981;27;98271;-67
2023/04/10 09:10:20;;;;;;;;;;;;;;;41.90;30.64;101524.69;4967730;27;98088;-66
2023/04/10 09:12:47;;;;;;;;;;;;;;;42.02;30.90;101514.53;4965628;27;125218;-67
2023/04/10 09:15:13;;;;;;;;;;;;;;;42.22;30.45;101509.31;4968575;27;100540;-69
2023/04/10 09:18:09;;;;;;;;;;;;;;;42.46;30.96;101506.78;4966757;27;99416;-69
2023/04/10 09:20:35;;;;;;;;;;;;;;;42.94;30.38;101501.66;4950937;27;123916;-67
2023/04/10 09:23:01;;;;;;;;;;;;;;;43.05;30.48;101504.81;4955543;28;100763;-67
2023/04/10 09:25:39;;;;;;;;;;;;;;;42.42;31.24;101489.94;4949228;27;99496;-67
2023/04/10 09:28:06;;;;;;;;;;;;;;;41.79;31.78;101493.91;4966641;27;99103;-67
2023/04/10 09:30:40;;;;;;;;;;;;;;;41.43;32.20;101485.91;4969612;27;98078;-67
2023/04/10 09:33:23;;;;;;;;;;;;;;;41.27;32.50;101486.84;4930952;27;99642;-68
2023/04/10 09:35:49;;;;;;;;;;;;;;;41.43;32.32;101488.75;4953617;28;98363;-67
2023/04/10 09:38:17;;;;;;;;;;;;;;;41.87;32.32;101486.75;4968393;27;98409;-69
2023/04/10 09:40:44;;;;;;;;;;;;;;;42.33;31.61;101480.59;4966698;27;97899;-68
2023/04/10 09:43:19;;;;;;;;;;;;;;;43.18;31.12;101482.03;4965938;27;99041;-68
2023/04/10 09:45:55;;;;;;;;;;;;;;;43.90;30.87;101476.84;4948906;28;99668;-68
2023/04/10 09:48:22;;;;;;;;;;;;;;;44.64;30.21;101466.06;4967456;27;98514;-68
2023/04/10 09:50:48;;;;;;;;;;;;;;;44.59;30.62;101463.88;4962366;27;116825;-68
2023/04/10 09:53:15;;;;;;;;;;;;;;;44.81;30.41;101455.91;4965857;27;100517;-67
2023/04/10 09:55:42;;;;;;;;;;;;;;;44.87;30.56;101452.38;4968656;27;99184;-68
2023/04/10 09:58:08;;;;;;;;;;;;;;;44.96;30.79;101453.13;4967701;27;98283;-68
2023/04/10 10:00:47;;;;;;;;;;;;;;;45.21;30.65;101446.16;4964862;27;98589;-68
2023/04/10 10:03:17;;;;;;;;;;;;;;;45.20;30.68;101444.59;4966240;27;98390;-68
2023/04/10 10:05:48;;;;;;;;;;;;;;;45.03;30.96;101432.84;4967426;27;98065;-68
2023/04/10 10:08:14;;;;;;;;;;;;;;;44.74;31.25;101427.84;4966313;27;126026;-67
2023/04/10 10:10:47;;;;;;;;;;;;;;;44.17;31.94;101415.59;4969300;27;98030;-67
2023/04/10 10:13:27;;;;;;;;;;;;;;;44.07;31.75;101412.81;4965378;27;98881;-67
2023/04/10 10:16:20;;;;;;;;;;;;;;;44.44;31.65;101420.41;4948366;28;99485;-68
2023/04/10 10:19:01;;;;;;;;;;;;;;;44.73;31.31;101402.75;4966454;27;113564;-68
2023/04/10 10:21:28;;;;;;;;;;;;;;;45.09;31.02;101403.78;4967594;27;97921;-67
2023/04/10 10:23:56;;;;;;;;;;;;;;;45.32;30.83;101394.41;4948016;28;100143;-68
2023/04/10 10:26:22;;;;;;;;;;;;;;;45.57;30.75;101393.06;4947069;27;99527;-68
2023/04/10 10:28:49;;;;;;;;;;;;;;;45.97;30.28;101386.78;4949889;28;98976;-68
2023/04/10 10:31:17;;;;;;;;;;;;;;;46.36;30.27;101386.63;4946695;27;98195;-68
2023/04/10 10:33:42;;;;;;;;;;;;;;;46.27;30.38;101383.91;4947877;28;99005;-67
2023/04/10 10:36:12;;;;;;;;;;;;;;;46.59;29.96;101375.59;4929486;27;127851;-67
2023/04/10 10:38:39;;;;;;;;;;;;;;;46.84;29.86;101374.84;4947978;27;98213;-68
2023/04/10 10:41:24;;;;;;;;;;;;;;;47.07;30.21;101369.44;4936348;27;123157;-68
2023/04/10 10:44:00;;;;;;;;;;;;;;;45.48;31.30;101353.34;4952281;28;98640;-68
2023/04/10 10:46:50;;;;;;;;;;;;;;;44.55;31.81;101352.47;4963899;27;98877;-67
2023/04/10 10:49:15;;;;;;;;;;;;;;;44.66;31.41;101352.75;4965134;27;113957;-68
2023/04/10 10:51:48;;;;;;;;;;;;;;;41.97;33.36;101343.28;4969165;27;122479;-67
2023/04/10 10:54:31;;;;;;;;;;;;;;;40.02;35.07;101338.34;4966016;27;99934;-68
2023/04/10 10:56:57;;;;;;;;;;;;;;;38.76;35.18;101348.69;4965613;27;99017;-67
2023/04/10 10:59:42;;;;;;;;;;;;;;;38.27;35.57;101338.16;4966716;27;98640;-66
2023/04/10 11:02:15;;;;;;;;;;;;;;;36.71;36.35;101328.00;4965721;27;99390;-68
2023/04/10 11:04:42;;;;;;;;;;;;;;;37.58;34.72;101321.19;4965341;27;99588;-67
2023/04/10 11:07:08;;;;;;;;;;;;;;;36.55;35.39;101321.06;4966501;27;98235;-68
2023/04/10 11:09:53;;;;;;;;;;;;;;;36.28;35.27;101311.88;4947051;27;126634;-68
2023/04/10 11:12:23;;;;;;;;;;;;;;;37.59;33.83;101316.38;4967351;27;98213;-68
2023/04/10 11:15:03;;;;;;;;;;;;;;;36.21;35.20;101312.75;4966212;27;98612;-68
2023/04/10 11:17:48;;;;;;;;;;;;;;;37.26;33.86;101302.16;4949712;27;98195;-67
2023/04/10 11:20:15;;;;;;;;;;;;;;;38.28;32.83;101303.19;4967099;27;98226;-69
2023/04/10 11:23:12;;;;;;;;;;;;;;;37.88;33.75;101299.69;4964365;27;98143;-68
2023/04/10 11:25:49;;;;;;;;;;;;;;;37.27;33.89;101289.69;4968490;27;98540;-68
2023/04/10 11:28:33;;;;;;;;;;;;;;;38.55;32.78;101286.06;4964711;27;98534;-68
2023/04/10 11:31:21;;;;;;;;;;;;;;;40.00;31.60;101288.00;4962175;27;98115;-68
2023/04/10 11:33:48;;;;;;;;;;;;;;;40.91;30.71;101284.59;4948219;28;98175;-67
2023/04/10 11:36:16;;;;;;;;;;;;;;;41.20;30.83;101290.00;4967798;27;99717;-69
2023/04/10 11:38:56;;;;;;;;;;;;;;;41.11;30.81;101272.19;4968319;27;98810;-68
2023/04/10 11:41:27;;;;;;;;;;;;;;;41.14;31.08;101260.75;4967685;27;98108;-68
2023/04/10 11:43:53;;;;;;;;;;;;;;;41.19;30.93;101257.34;4967760;27;97933;-68
2023/04/10 11:46:19;;;;;;;;;;;;;;;41.19;31.26;101250.91;4966972;27;128165;-69
2023/04/10 11:48:45;;;;;;;;;;;;;;;40.54;31.95;101255.19;4967558;27;128296;-68
2023/04/10 11:51:12;;;;;;;;;;;;;;;38.67;33.73;101245.09;4967912;27;98464;-67
2023/04/10 11:53:39;;;;;;;;;;;;;;;38.90;33.10;101244.09;4967291;27;97958;-69
2023/04/10 11:56:06;;;;;;;;;;;;;;;38.44;33.06;101239.72;4951202;27;99389;-69
2023/04/10 11:58:32;;;;;;;;;;;;;;;37.80;34.11;101234.34;4952144;28;98509;-67
2023/04/10 12:01:13;;;;;;;;;;;;;;;38.02;33.06;101229.03;4966927;27;129568;-67
2023/04/10 12:03:40;;;;;;;;;;;;;;;38.43;33.03;101230.44;4969339;27;98544;-67
2023/04/10 12:06:18;;;;;;;;;;;;;;;38.36;33.04;101230.66;4966841;27;99047;-67
2023/04/10 12:08:46;;;;;;;;;;;;;;;36.76;34.31;101232.09;4953155;28;98815;-66
2023/04/10 12:11:12;;;;;;;;;;;;;;;35.63;35.03;101227.84;4948844;27;98286;-67
2023/04/10 12:13:38;;;;;;;;;;;;;;;34.77;35.27;101223.22;4968114;27;97890;-66
2023/04/10 12:16:08;;;;;;;;;;;;;;;34.31;35.39;101221.66;4968780;27;120005;-67
2023/04/10 12:18:34;;;;;;;;;;;;;;;33.46;35.99;101220.97;4970289;27;100100;-68
2023/04/10 12:21:00;;;;;;;;;;;;;;;32.79;36.11;101213.56;4967804;27;98351;-67
2023/04/10 12:23:26;;;;;;;;;;;;;;;32.66;36.16;101207.63;4947303;27;100241;-67
2023/04/10 12:25:53;;;;;;;;;;;;;;;32.04;36.14;101215.56;4968735;27;107539;-67
2023/04/10 12:28:20;;;;;;;;;;;;;;;31.39;36.46;101209.00;4967314;27;98062;-67
2023/04/10 12:30:53;;;;;;;;;;;;;;;31.75;35.58;101205.16;4967062;27;98996;-66
2023/04/10 12:33:21;;;;;;;;;;;;;;;32.15;35.33;101194.88;4961611;27;100167;-66
2023/04/10 12:35:47;;;;;;;;;;;;;;;32.45;35.08;101197.28;4948679;27;98981;-66